Latest Coastal Weather Observations for Middle Percy Island

IDQ60701

Issued at 2:02 am EST Friday 5 March 2021 (issued every 10 minutes, with the page automatically refreshed every 10 minutes)

About coastal observations | Map of coastal stations | Coastal observations for QLD | Marine services | Other Formats
Station Details ID: 200001 Name: MIDDLE PERCY ISLAND Lat: -21.66 Lon: 150.27 Height: 208.7 m
Data from the previous 72 hours. | See also: Recent months at Middle Percy Island
Date/Time
EST
Wind Sea
Height
m
Swell Vis
km
Cloud Weather Temp
°C
Press
MSL
hPa
Rain since
9am
mm
Dir  Spd
kts
Gust
kts
Height
m
Period
s
Dir
05/02:00am SE 22 29 - - - - - - - 24.6 1004.6 5.2
05/01:30am SE 22 32 - - - - - - - 24.7 1004.9 5.2
05/01:19am SE 22 32 - - - - - - - 24.8 1005.0 5.2
05/01:00am SE 22 31 - - - - - - - 24.8 1005.1 5.2
05/12:48am SE 23 33 - - - - - - - 24.9 1005.2 5.2
05/12:30am SE 25 35 - - - - - - - 25.0 1005.3 5.2
05/12:00am SE 23 34 - - - - - - - 25.0 1005.5 5.2
 
Date/Time
EST
Wind Sea
Height
m
Swell Vis
km
Cloud Weather Temp
°C
Press
MSL
hPa
Rain since
9am
mm
Dir  Spd
kts
Gust
kts
Height
m
Period
s
Dir
04/11:48pm SE 22 32 - - - - - - - 24.7 1005.5 5.2
04/11:30pm SE 21 29 - - - - - - - 24.9 1005.5 5.2
04/11:16pm SE 23 33 - - - - - - - 24.9 1005.7 5.2
04/11:00pm SE 24 33 - - - - - - - 24.9 1005.9 5.2
04/10:33pm SE 24 35 - - - - - - - 24.9 1005.7 5.2
04/10:30pm SE 25 35 - - - - - - - 25.0 1005.6 5.2
04/10:25pm SE 24 35 - - - - - - - 24.9 1005.7 5.2
04/10:00pm SE 22 31 - - - - - - - 24.9 1005.8 5.2
04/09:43pm SE 23 34 - - - - - - - 24.9 1005.6 5.2
04/09:30pm SE 24 33 - - - - - - - 25.0 1005.7 5.2
04/09:00pm SE 23 34 - - - - - - - 24.8 1005.6 5.2
04/08:30pm SE 24 35 - - - - - - - 24.9 1005.5 5.2
04/08:00pm SE 21 34 - - - - - - - 24.9 1005.3 5.2
04/07:30pm SE 24 35 - - - - - - - 25.0 1004.9 5.2
04/07:00pm SE 22 33 - - - - - - - 25.0 1004.8 5.2
04/06:30pm SE 23 34 - - - - - - - 24.7 1004.6 5.2
04/06:08pm SSE 21 31 - - - - - - - 24.8 1004.4 5.2
04/06:00pm SSE 22 31 - - - - - - - 24.9 1004.4 5.2
04/05:30pm SE 23 36 - - - - - - - 25.0 1004.1 5.2
04/05:00pm SSE 23 34 - - - - - - - 25.1 1003.8 5.2
04/04:30pm SE 23 34 - - - - - - - 25.0 1003.7 5.2
04/04:00pm SSE 24 34 - - - - - - - 24.4 1003.6 5.2
04/03:30pm SE 21 32 - - - - - - - 25.2 1003.7 5.2
04/03:01pm SE 21 32 - - - - - - - 24.6 1003.8 5.2
04/03:00pm SE 22 32 - - - - - - Recent precip. 24.6 1003.7 5.2
04/02:36pm SE 15 26 - - - - - - - 23.5 1003.9 5.0
04/02:30pm ESE 10 20 - - - - - - - 22.9 1004.1 5.0
04/02:05pm SE 17 31 - - - - - - - 22.6 1004.6 2.6
04/02:00pm SE 20 31 - - - - - - - 23.6 1004.3 2.6
04/01:30pm SE 19 31 - - - - - - - 23.3 1004.6 2.4
04/01:25pm SSE 21 31 - - - - - - - 23.4 1004.7 2.4
04/01:00pm SSE 22 29 - - - - - - - 23.5 1004.7 1.8
04/12:30pm SE 20 27 - - - - - - - 23.4 1005.0 1.4
04/12:17pm SSE 21 32 - - - - - - - 24.1 1004.9 1.4
04/12:00pm SSE 14 20 - - - - - - Recent precip. 25.1 1005.4 1.2
04/11:43am SE 18 29 - - - - - - - 23.7 1005.7 1.2
04/11:30am SE 20 29 - - - - - - - 23.0 1005.8 1.2
04/11:06am SE 19 35 - - - - - - - 26.8 1005.7 0.0
04/11:00am SE 17 23 - - - - - - - 27.7 1005.9 0.0
04/10:30am SE 14 21 - - - - - - - 26.8 1006.0 0.0
04/10:00am SE 18 24 - - - - - - - 27.4 1006.2 0.0
04/09:30am ESE 13 19 - - - - - - - 26.5 1006.3 0.0
04/09:12am SE 16 26 - - - - - - - 25.8 1006.4 0.0
04/09:00am SE 16 23 - - - - - - - 25.6 1006.2 0.0
04/08:30am SE 15 21 - - - - - - - 25.9 1006.0 0.0
04/08:00am SE 17 24 - - - - - - - 25.9 1005.8 0.0
04/07:30am SE 17 23 - - - - - - - 25.8 1005.5 0.0
04/07:00am SE 16 23 - - - - - - - 25.6 1005.2 0.0
04/06:30am SE 18 24 - - - - - - - 25.4 1005.0 0.0
04/06:00am SE 17 25 - - - - - - - 25.2 1004.8 0.0
04/05:30am SE 15 22 - - - - - - - 25.3 1004.6 0.0
04/05:00am SE 17 23 - - - - - - - 25.4 1004.4 0.0
04/04:30am SE 15 23 - - - - - - - 25.5 1004.4 0.0
04/04:00am SE 15 20 - - - - - - - 25.3 1004.4 0.0
04/03:30am SE 16 22 - - - - - - - 25.3 1004.5 0.0
04/03:00am ESE 16 21 - - - - - - - 25.3 1004.4 0.0
04/02:30am ESE 15 21 - - - - - - - 25.3 1004.7 0.0
04/02:00am ESE 15 21 - - - - - - - 25.4 1005.2 0.0
04/01:30am SE 15 21 - - - - - - - 25.3 1005.3 0.0
04/01:00am ESE 15 20 - - - - - - - 25.3 1005.6 0.0
04/12:30am ESE 15 20 - - - - - - - 25.3 1005.5 0.0
04/12:00am ESE 14 21 - - - - - - - 25.3 1005.8 0.0
 
Date/Time
EST
Wind Sea
Height
m
Swell Vis
km
Cloud Weather Temp
°C
Press
MSL
hPa
Rain since
9am
mm
Dir  Spd
kts
Gust
kts
Height
m
Period
s
Dir
03/11:30pm ESE 14 20 - - - - - - - 25.4 1005.8 0.0
03/11:00pm SE 11 18 - - - - - - - 25.2 1005.9 0.0
03/10:30pm ESE 11 16 - - - - - - - 25.2 1006.3 0.0
03/10:00pm ESE 11 20 - - - - - - - 25.1 1006.0 0.0
03/09:30pm ESE 15 20 - - - - - - - 25.2 1006.4 0.0
03/09:00pm ESE 14 22 - - - - - - - 25.2 1006.3 0.0
03/08:30pm ESE 13 20 - - - - - - - 25.2 1006.0 0.0
03/08:00pm ESE 12 17 - - - - - - - 25.2 1005.6 0.0
03/07:30pm ESE 14 21 - - - - - - - 25.2 1005.7 0.0
03/07:00pm ESE 15 22 - - - - - - - 25.3 1005.8 0.0
03/06:30pm ESE 15 23 - - - - - - - 25.4 1005.8 0.0
03/06:00pm ESE 14 23 - - - - - - - 25.9 1005.7 0.0
03/05:30pm SE 16 21 - - - - - - - 26.3 1005.4 0.0
03/05:00pm SE 15 23 - - - - - - - 26.6 1005.4 0.0
03/04:30pm SE 17 23 - - - - - - - 26.9 1005.5 0.0
03/04:00pm SE 17 25 - - - - - - - 26.9 1005.2 0.0
03/03:30pm SE 18 24 - - - - - - - 27.7 1005.2 0.0
03/03:00pm SE 17 23 - - - - - - - 27.6 1005.4 0.0
03/02:30pm SE 17 25 - - - - - - - 28.5 1005.5 0.0
03/02:00pm SE 16 23 - - - - - - - 28.3 1005.8 0.0
03/01:30pm SSE 20 26 - - - - - - - 27.4 1005.8 0.0
03/01:00pm SE 16 23 - - - - - - - 28.6 1006.3 0.0
03/12:30pm SE 16 25 - - - - - - - 28.3 1006.8 0.0
03/12:00pm SE 15 22 - - - - - - - 28.2 1007.1 0.0
03/11:30am SE 17 24 - - - - - - - 27.7 1007.4 0.0
03/11:00am SE 17 24 - - - - - - - 28.3 1007.8 0.0
03/10:30am SSE 18 25 - - - - - - - 27.1 1008.0 0.0
03/10:00am SSE 17 24 - - - - - - - 27.2 1008.0 0.0
03/09:30am SSE 14 19 - - - - - - - 27.8 1008.0 0.0
03/09:00am SSE 18 23 - - - - - - - 27.2 1007.9 0.2
03/08:30am SSE 15 21 - - - - - - - 26.7 1007.7 0.2
03/08:00am SSE 14 20 - - - - - - - 26.3 1007.5 0.2
03/07:30am SSE 14 20 - - - - - - - 26.0 1007.2 0.2
03/07:00am SE 12 20 - - - - - - - 25.7 1006.9 0.2
03/06:30am SE 12 20 - - - - - - - 25.6 1006.5 0.2
03/06:00am SE 13 19 - - - - - - - 25.4 1006.4 0.2
03/05:30am SE 12 18 - - - - - - - 25.5 1006.3 0.2
03/05:00am SE 13 18 - - - - - - - 25.5 1006.0 0.2
03/04:30am SE 13 20 - - - - - - - 25.4 1005.7 0.2
03/04:00am SE 13 18 - - - - - - - 25.4 1005.7 0.2
03/03:30am SE 14 19 - - - - - - - 25.5 1005.5 0.2
03/03:00am ESE 13 19 - - - - - - - 25.4 1005.4 0.2
03/02:30am ESE 12 19 - - - - - - - 25.4 1005.4 0.2
03/02:00am ESE 14 19 - - - - - - - 25.4 1005.5 0.2
03/01:30am ESE 14 20 - - - - - - - 25.4 1005.6 0.2
03/01:00am SE 14 20 - - - - - - - 25.5 1005.8 0.2
03/12:30am SE 13 20 - - - - - - - 25.5 1006.1 0.2
03/12:00am SE 14 20 - - - - - - - 25.5 1006.5 0.2
 
Date/Time
EST
Wind Sea
Height
m
Swell Vis
km
Cloud Weather Temp
°C
Press
MSL
hPa
Rain since
9am
mm
Dir  Spd
kts
Gust
kts
Height
m
Period
s
Dir
02/11:30pm SE 14 20 - - - - - - - 25.6 1006.5 0.2
02/11:00pm ESE 12 18 - - - - - - - 25.5 1007.0 0.2
02/10:30pm ESE 12 19 - - - - - - - 25.6 1007.2 0.2
02/10:00pm ESE 13 19 - - - - - - - 25.6 1007.0 0.2
02/09:30pm ESE 13 20 - - - - - - - 25.6 1006.8 0.2
02/09:00pm ESE 12 20 - - - - - - - 25.5 1006.6 0.2
02/08:30pm ESE 15 20 - - - - - - - 25.5 1006.5 0.2
02/08:00pm SE 15 20 - - - - - - - 25.4 1006.5 0.2
02/07:30pm SE 16 23 - - - - - - - 25.4 1006.2 0.2
02/07:00pm SSE 16 22 - - - - - - - 25.4 1005.9 0.2
02/06:30pm SSE 17 25 - - - - - - - 25.7 1005.7 0.2
02/06:00pm SSE 18 24 - - - - - - - 25.9 1005.5 0.2
02/05:30pm SSE 18 24 - - - - - - - 26.0 1005.3 0.2
02/05:00pm SSE 19 25 - - - - - - - 26.1 1005.0 0.2
02/04:30pm SSE 18 26 - - - - - - - 26.3 1004.9 0.2
02/04:00pm SSE 16 25 - - - - - - - 26.7 1004.9 0.2
02/03:30pm SSE 20 30 - - - - - - - 26.6 1004.9 0.2
02/03:21pm SSE 19 30 - - - - - - - 26.5 1004.8 0.2
02/03:00pm SSE 19 27 - - - - - - - 27.0 1005.2 0.2
02/02:30pm SSE 20 25 - - - - - - - 26.7 1005.2 0.2
02/02:00pm SSE 17 24 - - - - - - - 26.6 1005.3 0.2
02/01:30pm SSE 17 24 - - - - - - - 27.5 1005.3 0.2
02/01:05pm SSE 17 28 - - - - - - - 26.9 1005.5 0.2
02/01:00pm SSE 18 26 - - - - - - - 26.8 1005.6 0.2
02/12:30pm SE 16 27 - - - - - - - 27.4 1005.9 0.2
02/12:25pm SE 16 27 - - - - - - - 27.1 1005.9 0.2
02/12:00pm SSE 16 22 - - - - - - Recent precip. 26.9 1006.0 0.2
02/11:30am SE 15 22 - - - - - - - 27.3 1006.5 0.0
02/11:00am SE 15 22 - - - - - - - 27.0 1007.0 0.0
02/10:30am SSE 15 23 - - - - - - - 26.8 1007.2 0.0
02/10:00am SSE 15 21 - - - - - - - 26.8 1007.2 0.0
02/09:30am SSE 15 21 - - - - - - - 26.0 1007.4 0.0
02/09:00am SE 16 22 - - - - - - - 26.1 1007.2 2.8
02/08:30am SE 14 21 - - - - - - - 25.9 1007.3 2.8
02/08:00am SE 15 21 - - - - - - - 26.0 1007.0 2.8
02/07:30am SE 15 20 - - - - - - - 25.7 1007.0 2.8
02/07:00am SE 14 22 - - - - - - - 25.6 1006.6 2.8
02/06:30am SE 16 23 - - - - - - - 25.5 1006.3 2.8
02/06:00am SE 14 21 - - - - - - - 25.5 1005.8 2.8
02/05:30am SE 18 25 - - - - - - - 25.6 1005.0 2.8
02/05:00am ESE 18 26 - - - - - - - 25.4 1004.4 2.8
02/04:30am ESE 15 24 - - - - - - - 25.5 1004.3 2.8
02/04:00am ESE 17 23 - - - - - - - 25.5 1004.9 2.8
02/03:30am ESE 17 26 - - - - - - - 25.6 1004.9 2.8
02/03:26am ESE 16 26 - - - - - - - 25.6 1004.9 2.8
02/03:00am ESE 19 26 - - - - - - - 25.5 1004.9 2.8
02/02:30am ESE 16 22 - - - - - - - 25.5 1005.1 2.8
02/02:02am ESE 18 29 - - - - - - - 25.5 1005.4 2.8

Other formats

Comma delimited format used in spreadsheet applications
http://www.bom.gov.au/fwo/IDQ60701/IDQ60701.94372.axf

JavaScript Object Notation format (JSON) in row-major order
http://www.bom.gov.au/fwo/IDQ60701/IDQ60701.94372.json

Data quality

Most of these data are generated automatically and are frequently updated. Quality checks on data are not normally performed. It is possible for incorrect values to appear. Refer to information at About Latest Weather Observations and please check the disclaimer before using these data.